Terminal Aerodrome Forecast
Issued by NWS

Home | Current Version | Previous Version | Text Only | Print | Product List | Glossary Off
Versions: 1 2 3 4 5 6 7 8 9 10 11 12 13 14 15 16 17

814
FTUS43 KMPX 112328
TAFAXN
TAF
KAXN 112328Z 1200/1224 28006KT 5SM HZ OVC014
     FM120500 33009KT P6SM OVC025
     FM120900 33012KT P6SM SCT030 OVC050
     FM121500 33016G24KT P6SM SCT250
     FM122200 33013KT P6SM SKC=

USA.gov is the U.S. government's official web portal to all federal, state and local government web resources and services.